Time;durP1;ratioP1;P1;durP2;ratioP2;P2;SDS_P1;SDS_P2;PMS_P1;PMS_P2;Temp;Humidity;BMP_temperature;BMP_pressure;BME280_temperature;BME280_humidity;BME280_pressure;Samples;Min_cycle;Max_cycle;Signal;HPM_P1;HPM_P2
2023/10/08 00:02:05;;;;;;;0.13;0.13;;;16.50;95.50;;;;;;5090751;28;20198;-61
2023/10/08 00:04:37;;;;;;;0.00;0.00;;;16.50;95.40;;;;;;5090715;28;20216;-62
2023/10/08 00:07:09;;;;;;;0.00;0.00;;;16.50;95.40;;;;;;5090770;28;20279;-62
2023/10/08 00:09:38;;;;;;;0.00;0.00;;;16.40;95.30;;;;;;5087392;28;20739;-62
2023/10/08 00:12:04;;;;;;;0.00;0.00;;;16.40;95.30;;;;;;5091140;28;20599;-61
2023/10/08 00:14:31;;;;;;;0.00;0.00;;;16.30;95.20;;;;;;5090183;28;20595;-62
2023/10/08 00:16:57;;;;;;;0.10;0.10;;;16.30;95.10;;;;;;5094340;28;20216;-61
2023/10/08 00:19:24;;;;;;;0.00;0.00;;;16.30;95.10;;;;;;5093390;28;20203;-61
2023/10/08 00:21:53;;;;;;;0.00;0.00;;;16.30;95.10;;;;;;5094376;28;20180;-62
2023/10/08 00:24:26;;;;;;;0.00;0.00;;;16.30;95.10;;;;;;5094477;28;20281;-61
2023/10/08 00:26:54;;;;;;;0.00;0.00;;;16.30;95.20;;;;;;5094464;28;20184;-62
2023/10/08 00:29:22;;;;;;;0.00;0.00;;;16.30;95.20;;;;;;5084279;28;20716;-61
2023/10/08 00:31:49;;;;;;;0.00;0.00;;;16.30;95.30;;;;;;5093005;28;20531;-61
2023/10/08 00:34:17;;;;;;;0.00;0.00;;;16.30;95.30;;;;;;5094500;28;20245;-61
2023/10/08 00:36:47;;;;;;;0.05;0.05;;;16.40;95.40;;;;;;5094416;28;20188;-61
2023/10/08 00:39:14;;;;;;;0.00;0.00;;;16.30;95.40;;;;;;5093881;28;20211;-61
2023/10/08 00:41:43;;;;;;;0.00;0.00;;;16.30;95.50;;;;;;5094370;28;20707;-61
2023/10/08 00:44:13;;;;;;;0.00;0.00;;;16.30;95.50;;;;;;5094223;28;20243;-60
2023/10/08 00:46:47;;;;;;;0.00;0.00;;;16.30;95.50;;;;;;5094230;28;20168;-62
2023/10/08 00:52:00;;;;;;;0.10;0.10;;;16.30;95.70;;;;;;5092868;28;20643;-61
2023/10/08 00:54:30;;;;;;;0.03;0.03;;;16.30;95.80;;;;;;5093686;28;20225;-61
2023/10/08 00:56:58;;;;;;;0.00;0.00;;;16.30;95.70;;;;;;5094062;28;20663;-61
2023/10/08 00:59:25;;;;;;;0.00;0.00;;;16.40;95.80;;;;;;5094137;28;20208;-62
2023/10/08 01:01:53;;;;;;;0.00;0.00;;;16.40;95.90;;;;;;5093673;28;20176;-61
2023/10/08 01:04:26;;;;;;;0.00;0.00;;;16.40;96.00;;;;;;5093704;28;20724;-62
2023/10/08 01:07:01;;;;;;;0.00;0.00;;;16.40;95.90;;;;;;5093903;28;20176;-61
2023/10/08 01:09:35;;;;;;;0.00;0.00;;;16.40;95.80;;;;;;5078374;28;20254;-62
2023/10/08 01:12:15;;;;;;;0.03;0.03;;;16.50;95.70;;;;;;5093809;28;20175;-62
2023/10/08 01:14:42;;;;;;;0.00;0.00;;;16.50;95.60;;;;;;5093642;28;20188;-63
2023/10/08 01:17:09;;;;;;;0.00;0.00;;;16.50;95.70;;;;;;5093525;28;20222;-63
2023/10/08 01:19:40;;;;;;;0.00;0.00;;;16.40;95.60;;;;;;5093335;28;20186;-63
2023/10/08 01:22:18;;;;;;;0.00;0.00;;;16.40;95.50;;;;;;5093684;28;20195;-63
2023/10/08 01:24:50;;;;;;;0.00;0.00;;;16.40;95.50;;;;;;5093582;28;20208;-63
2023/10/08 01:27:24;;;;;;;0.38;0.17;;;16.30;95.40;;;;;;5092596;28;20205;-62
2023/10/08 01:29:51;;;;;;;0.00;0.00;;;16.30;95.30;;;;;;5093601;28;20180;-62
2023/10/08 01:32:18;;;;;;;0.00;0.00;;;16.20;95.10;;;;;;5093336;28;20222;-63
2023/10/08 01:34:47;;;;;;;0.00;0.00;;;16.20;95.10;;;;;;5093473;28;20671;-63
2023/10/08 01:37:17;;;;;;;0.00;0.00;;;16.20;95.00;;;;;;5092668;28;20184;-62
2023/10/08 01:39:45;;;;;;;0.00;0.00;;;16.20;94.90;;;;;;5093015;28;20241;-63
2023/10/08 01:42:23;;;;;;;0.00;0.00;;;16.20;94.80;;;;;;5093166;28;20280;-63
2023/10/08 01:44:50;;;;;;;0.00;0.00;;;16.30;94.70;;;;;;5092805;28;20183;-62
2023/10/08 01:47:16;;;;;;;0.00;0.00;;;16.30;94.50;;;;;;5092842;28;20223;-63
2023/10/08 01:49:44;;;;;;;0.00;0.00;;;16.30;94.50;;;;;;5092956;28;20172;-62
2023/10/08 01:52:29;;;;;;;0.00;0.00;;;16.30;94.40;;;;;;5092927;28;20176;-62
2023/10/08 01:54:55;;;;;;;0.00;0.00;;;16.30;94.30;;;;;;5092886;28;20653;-62
2023/10/08 01:57:20;;;;;;;0.10;0.10;;;16.40;94.20;;;;;;5092688;28;20263;-62
2023/10/08 01:59:46;;;;;;;0.00;0.00;;;16.40;94.20;;;;;;5092874;28;20223;-62
2023/10/08 02:02:14;;;;;;;0.00;0.00;;;16.40;94.30;;;;;;5091351;28;20176;-62
2023/10/08 02:04:40;;;;;;;0.10;0.10;;;16.40;94.20;;;;;;5092842;28;20184;-62
2023/10/08 02:07:12;;;;;;;0.00;0.00;;;16.40;94.20;;;;;;5091414;28;20226;-62
2023/10/08 02:09:38;;;;;;;0.00;0.00;;;16.40;94.20;;;;;;5092521;28;20241;-62
2023/10/08 02:12:04;;;;;;;0.00;0.00;;;16.30;94.20;;;;;;5092718;28;20172;-62
2023/10/08 02:14:31;;;;;;;0.00;0.00;;;16.40;94.30;;;;;;5092597;28;20636;-62
2023/10/08 02:17:01;;;;;;;0.00;0.00;;;16.30;94.30;;;;;;5092534;28;20245;-62
2023/10/08 02:19:27;;;;;;;0.00;0.00;;;16.30;94.40;;;;;;5092420;28;20225;-62
2023/10/08 02:21:54;;;;;;;0.00;0.00;;;16.30;94.30;;;;;;5092457;28;20204;-62
2023/10/08 02:24:22;;;;;;;0.00;0.00;;;16.30;94.40;;;;;;5092372;28;20725;-62
2023/10/08 02:26:47;;;;;;;0.00;0.00;;;16.30;94.40;;;;;;5092353;28;20587;-61
2023/10/08 02:29:13;;;;;;;0.00;0.00;;;16.30;94.40;;;;;;5092086;28;20285;-61
2023/10/08 02:31:39;;;;;;;0.00;0.00;;;16.30;94.30;;;;;;5090922;28;20554;-61
2023/10/08 02:34:08;;;;;;;0.00;0.00;;;16.30;94.40;;;;;;5093120;28;20173;-63
2023/10/08 02:36:37;;;;;;;2.17;0.98;;;16.30;94.50;;;;;;5092108;28;20219;-61
2023/10/08 02:39:09;;;;;;;0.00;0.00;;;16.20;94.50;;;;;;5091101;28;20224;-62
2023/10/08 02:41:41;;;;;;;0.00;0.00;;;16.20;94.50;;;;;;5084618;28;20678;-62
2023/10/08 02:44:07;;;;;;;0.00;0.00;;;16.20;94.50;;;;;;5091635;28;20212;-62
2023/10/08 02:46:33;;;;;;;0.00;0.00;;;16.20;94.50;;;;;;5091602;28;20679;-62
2023/10/08 02:48:58;;;;;;;0.00;0.00;;;16.20;94.50;;;;;;5091914;28;20233;-62
2023/10/08 02:51:24;;;;;;;0.00;0.00;;;16.20;94.30;;;;;;5091216;28;20179;-63
2023/10/08 02:53:50;;;;;;;0.00;0.00;;;16.20;94.30;;;;;;5091705;28;20573;-62
2023/10/08 02:56:15;;;;;;;0.00;0.00;;;16.20;94.30;;;;;;5090260;28;20180;-62
2023/10/08 02:58:43;;;;;;;0.00;0.00;;;16.20;94.40;;;;;;5092325;28;20176;-62
2023/10/08 03:01:12;;;;;;;0.00;0.00;;;16.20;94.40;;;;;;5091649;28;20187;-61
2023/10/08 03:03:42;;;;;;;0.00;0.00;;;16.20;94.30;;;;;;5091329;28;20299;-61
2023/10/08 03:06:11;;;;;;;0.00;0.00;;;16.20;94.40;;;;;;5091780;28;20169;-61
2023/10/08 03:08:40;;;;;;;0.00;0.00;;;16.20;94.40;;;;;;5091501;28;20267;-62
2023/10/08 03:11:16;;;;;;;0.00;0.00;;;16.30;94.40;;;;;;5091402;28;20166;-61
2023/10/08 03:13:46;;;;;;;0.00;0.00;;;16.30;94.30;;;;;;5080857;28;20179;-63
2023/10/08 03:16:13;;;;;;;0.00;0.00;;;16.30;94.40;;;;;;5091470;28;20542;-62
2023/10/08 03:18:45;;;;;;;0.00;0.00;;;16.20;94.30;;;;;;5091350;28;20288;-61
2023/10/08 03:21:19;;;;;;;0.00;0.00;;;16.20;94.40;;;;;;5090966;28;20180;-62
2023/10/08 03:23:47;;;;;;;0.00;0.00;;;16.10;94.20;;;;;;5091426;28;20227;-62
2023/10/08 03:26:33;;;;;;;0.05;0.05;;;16.10;94.30;;;;;;5091133;28;20528;-61
2023/10/08 03:29:07;;;;;;;0.00;0.00;;;16.00;94.20;;;;;;5091459;28;20591;-62
2023/10/08 03:34:19;;;;;;;0.00;0.00;;;16.10;94.40;;;;;;5090943;28;20639;-61
2023/10/08 03:36:46;;;;;;;0.00;0.00;;;15.90;94.30;;;;;;5091047;28;20227;-62
2023/10/08 03:39:15;;;;;;;0.00;0.00;;;15.80;94.30;;;;;;5090959;28;20223;-62
2023/10/08 03:41:41;;;;;;;0.00;0.00;;;15.80;94.50;;;;;;5090657;28;20183;-62
2023/10/08 03:44:14;;;;;;;0.00;0.00;;;15.80;94.40;;;;;;5090548;28;20266;-62
2023/10/08 03:46:43;;;;;;;0.00;0.00;;;15.70;94.30;;;;;;5091205;28;20176;-62
2023/10/08 03:49:45;;;;;;;0.00;0.00;;;15.70;94.30;;;;;;5091156;28;20207;-62
2023/10/08 03:52:01;;;;;;;0.00;0.00;;;15.70;94.30;;;;;;5084219;28;20270;-61
2023/10/08 03:54:29;;;;;;;0.00;0.00;;;15.70;94.40;;;;;;5095139;28;20660;-62
2023/10/08 03:56:56;;;;;;;0.00;0.00;;;15.60;94.50;;;;;;5094650;28;20184;-62
2023/10/08 03:59:31;;;;;;;0.00;0.00;;;15.60;94.50;;;;;;5095178;28;20198;-61
2023/10/08 04:02:13;;;;;;;0.00;0.00;;;15.60;94.60;;;;;;5094940;28;20172;-61
2023/10/08 04:04:49;;;;;;;0.00;0.00;;;15.60;94.80;;;;;;5094910;28;20215;-62
2023/10/08 04:07:24;;;;;;;0.00;0.00;;;15.60;94.80;;;;;;5094549;28;20172;-61
2023/10/08 04:09:59;;;;;;;0.00;0.00;;;15.60;95.00;;;;;;5094853;28;20179;-61
2023/10/08 04:12:27;;;;;;;0.00;0.00;;;15.60;95.10;;;;;;5095171;28;20179;-63
2023/10/08 04:14:55;;;;;;;0.10;0.10;;;15.70;95.10;;;;;;5095073;28;20180;-62
2023/10/08 04:17:22;;;;;;;0.00;0.00;;;15.80;95.10;;;;;;5094990;28;20264;-62
2023/10/08 04:19:48;;;;;;;0.00;0.00;;;15.80;95.10;;;;;;5094691;28;20203;-62
2023/10/08 04:22:17;;;;;;;0.00;0.00;;;15.80;95.10;;;;;;5093476;28;20173;-62
2023/10/08 04:24:43;;;;;;;0.00;0.00;;;15.80;95.30;;;;;;5094674;28;20199;-61
2023/10/08 04:27:09;;;;;;;0.00;0.00;;;15.80;95.40;;;;;;5093523;28;20527;-62
2023/10/08 04:29:37;;;;;;;0.10;0.10;;;15.90;95.40;;;;;;5094356;28;20204;-62
2023/10/08 04:32:11;;;;;;;0.00;0.00;;;15.90;95.40;;;;;;5087019;28;20176;-62
2023/10/08 04:34:37;;;;;;;0.00;0.00;;;15.90;95.40;;;;;;5094631;28;20175;-59
2023/10/08 04:37:12;;;;;;;0.00;0.00;;;15.90;95.30;;;;;;5094542;28;20551;-62
2023/10/08 04:39:40;;;;;;;0.25;0.25;;;15.80;95.00;;;;;;5094100;28;20214;-61
2023/10/08 04:42:09;;;;;;;0.00;0.00;;;15.80;94.90;;;;;;5094256;28;20203;-62
2023/10/08 04:44:38;;;;;;;0.00;0.00;;;15.70;95.00;;;;;;5093660;28;20567;-61
2023/10/08 04:47:08;;;;;;;0.00;0.00;;;15.60;95.00;;;;;;5094109;28;20187;-61
2023/10/08 04:49:34;;;;;;;0.00;0.00;;;15.60;95.10;;;;;;5093730;28;20242;-61
2023/10/08 04:52:14;;;;;;;0.00;0.00;;;15.50;95.00;;;;;;5077893;28;20176;-60
2023/10/08 04:54:46;;;;;;;0.00;0.00;;;15.40;94.90;;;;;;5093758;28;20298;-62
2023/10/08 04:57:15;;;;;;;0.00;0.00;;;15.40;95.00;;;;;;5094097;28;20187;-61
2023/10/08 04:59:42;;;;;;;0.15;0.15;;;15.30;95.10;;;;;;5092814;28;20176;-60
2023/10/08 05:02:20;;;;;;;0.00;0.00;;;15.30;95.00;;;;;;5092655;28;20271;-61
2023/10/08 05:12:37;;;;;;;0.00;0.00;;;15.10;95.30;;;;;;5093741;28;20177;-61
2023/10/08 05:23:20;;;;;;;0.00;0.00;;;15.00;95.90;;;;;;5092931;28;20644;-61
2023/10/08 05:25:58;;;;;;;0.00;0.00;;;14.90;96.00;;;;;;5093208;28;20180;-60
2023/10/08 05:28:24;;;;;;;0.00;0.00;;;14.90;96.10;;;;;;5079058;28;20226;-60
2023/10/08 05:33:59;;;;;;;0.00;0.00;;;14.90;96.40;;;;;;5088772;28;20547;-60
2023/10/08 05:39:29;;;;;;;0.00;0.00;;;14.80;96.70;;;;;;5092817;28;20230;-60
2023/10/08 05:42:13;;;;;;;0.00;0.00;;;14.70;97.00;;;;;;5091373;28;20176;-61
2023/10/08 05:55:27;;;;;;;0.10;0.10;;;14.50;97.80;;;;;;5091721;28;20204;-60
2023/10/08 06:01:02;;;;;;;0.00;0.00;;;14.40;98.10;;;;;;5092269;28;20643;-60
2023/10/08 06:03:39;;;;;;;0.00;0.00;;;14.40;98.30;;;;;;5092513;28;20203;-60
2023/10/08 06:06:37;;;;;;;0.00;0.00;;;14.30;98.50;;;;;;5092401;28;20191;-60
2023/10/08 06:11:56;;;;;;;0.15;0.15;;;14.30;98.90;;;;;;5087558;28;20176;-60
2023/10/08 06:14:42;;;;;;;0.00;0.00;;;14.30;99.20;;;;;;5092521;28;20188;-60
2023/10/08 06:17:23;;;;;;;0.00;0.00;;;14.30;99.30;;;;;;5092995;28;20537;-60
2023/10/08 06:19:49;;;;;;;0.00;0.00;;;14.30;99.40;;;;;;5092735;28;20182;-59
2023/10/08 06:22:15;;;;;;;0.00;0.00;;;14.30;99.50;;;;;;5092554;28;20176;-59
2023/10/08 06:24:40;;;;;;;0.00;0.00;;;14.40;99.70;;;;;;5092366;28;20223;-60
2023/10/08 06:27:07;;;;;;;0.00;0.00;;;14.40;99.90;;;;;;5092776;28;20183;-60
2023/10/08 06:29:32;;;;;;;0.00;0.00;;;14.40;99.90;;;;;;5092413;28;20176;-60
2023/10/08 06:32:02;;;;;;;0.00;0.00;;;14.40;99.90;;;;;;5092565;28;20246;-60
2023/10/08 06:34:28;;;;;;;0.00;0.00;;;14.40;99.90;;;;;;5092551;28;20233;-60
2023/10/08 06:36:56;;;;;;;0.00;0.00;;;14.50;99.90;;;;;;5092008;28;20191;-60
2023/10/08 06:39:32;;;;;;;0.00;0.00;;;14.60;99.90;;;;;;5091142;28;20303;-59
2023/10/08 06:41:59;;;;;;;0.00;0.00;;;14.60;99.90;;;;;;5092280;28;20226;-58
2023/10/08 06:44:26;;;;;;;0.00;0.00;;;14.70;99.90;;;;;;5090896;28;20576;-60
2023/10/08 06:46:56;;;;;;;0.00;0.00;;;14.80;99.90;;;;;;5091191;28;20176;-59
2023/10/08 06:49:25;;;;;;;0.00;0.00;;;14.90;99.90;;;;;;5091589;28;20275;-59
2023/10/08 06:51:51;;;;;;;0.00;0.00;;;15.00;99.90;;;;;;5091874;28;20183;-60
2023/10/08 06:54:18;;;;;;;0.13;0.13;;;15.20;99.90;;;;;;5091505;28;20188;-61
2023/10/08 06:56:51;;;;;;;0.00;0.00;;;15.50;99.90;;;;;;5091044;28;20172;-60
2023/10/08 06:59:17;;;;;;;0.98;0.80;;;15.80;98.50;;;;;;5084731;28;20176;-61
2023/10/08 07:01:45;;;;;;;0.00;0.00;;;16.30;97.50;;;;;;5096199;28;20184;-60
2023/10/08 07:04:12;;;;;;;0.00;0.00;;;16.50;96.90;;;;;;5091576;28;20219;-63
2023/10/08 07:06:42;;;;;;;0.00;0.00;;;16.70;96.30;;;;;;5090394;28;20192;-61
2023/10/08 07:09:22;;;;;;;0.00;0.00;;;16.70;95.80;;;;;;5091127;28;20278;-64
2023/10/08 07:11:57;;;;;;;0.00;0.00;;;16.80;95.70;;;;;;5090733;28;20176;-63
2023/10/08 07:14:26;;;;;;;0.00;0.00;;;16.90;95.60;;;;;;5091145;28;20184;-66
2023/10/08 07:16:58;;;;;;;0.00;0.00;;;16.90;95.10;;;;;;5091493;28;20537;-65
2023/10/08 07:19:32;;;;;;;0.00;0.00;;;16.80;94.90;;;;;;5091297;28;20188;-66
2023/10/08 07:22:06;;;;;;;0.10;0.10;;;16.70;94.60;;;;;;5076731;28;20625;-65
2023/10/08 07:24:37;;;;;;;0.00;0.00;;;16.70;94.10;;;;;;5088888;28;20220;-65
2023/10/08 07:27:08;;;;;;;0.00;0.00;;;16.60;93.80;;;;;;5089557;28;20279;-65
2023/10/08 07:29:35;;;;;;;0.00;0.00;;;16.70;93.70;;;;;;5091200;28;20213;-64
2023/10/08 07:32:09;;;;;;;0.00;0.00;;;16.80;93.40;;;;;;5086566;28;20184;-64
2023/10/08 07:34:36;;;;;;;0.00;0.00;;;17.00;92.60;;;;;;5090910;28;20606;-63
2023/10/08 07:37:02;;;;;;;0.00;0.00;;;17.00;92.40;;;;;;5091020;28;20642;-62
2023/10/08 07:39:35;;;;;;;0.00;0.00;;;17.00;92.30;;;;;;5090811;28;20230;-63
2023/10/08 07:42:05;;;;;;;0.00;0.00;;;17.00;92.60;;;;;;5090999;28;20172;-63
2023/10/08 07:44:31;;;;;;;0.08;0.08;;;17.00;92.60;;;;;;5090772;28;20212;-64
2023/10/08 07:46:57;;;;;;;0.00;0.00;;;17.00;92.90;;;;;;5090786;28;20184;-63
2023/10/08 07:49:25;;;;;;;0.00;0.00;;;17.10;93.00;;;;;;5090827;28;20356;-63
2023/10/08 07:51:54;;;;;;;0.00;0.00;;;17.30;93.40;;;;;;5090885;28;20237;-63
2023/10/08 07:54:24;;;;;;;0.00;0.00;;;17.70;93.00;;;;;;5089518;28;20183;-63
2023/10/08 07:56:51;;;;;;;0.00;0.00;;;18.00;92.40;;;;;;5090995;28;20266;-63
2023/10/08 07:59:17;;;;;;;0.00;0.00;;;18.30;91.90;;;;;;5089521;28;20667;-64
2023/10/08 08:01:43;;;;;;;0.00;0.00;;;18.80;91.00;;;;;;5090631;28;20177;-64
2023/10/08 08:04:10;;;;;;;0.00;0.00;;;19.40;91.10;;;;;;5090761;28;20265;-64
2023/10/08 08:06:37;;;;;;;0.10;0.10;;;19.70;90.00;;;;;;5090760;28;20233;-65
2023/10/08 08:09:17;;;;;;;0.00;0.00;;;20.00;88.80;;;;;;5090856;28;20350;-64
2023/10/08 08:11:45;;;;;;;0.00;0.00;;;20.10;88.40;;;;;;5090817;28;20183;-64
2023/10/08 08:14:11;;;;;;;0.00;0.00;;;20.30;89.10;;;;;;5090823;28;20276;-64
2023/10/08 08:16:37;;;;;;;0.00;0.00;;;20.60;89.00;;;;;;5090827;28;20203;-64
2023/10/08 08:19:03;;;;;;;0.00;0.00;;;21.00;87.40;;;;;;5090887;28;20548;-64
2023/10/08 08:21:30;;;;;;;0.10;0.10;;;21.30;86.80;;;;;;5072704;28;20271;-64
2023/10/08 08:24:04;;;;;;;0.00;0.00;;;21.80;86.10;;;;;;5090474;28;20302;-63
2023/10/08 08:26:39;;;;;;;0.00;0.00;;;22.20;85.20;;;;;;5090872;28;20267;-64
2023/10/08 08:29:05;;;;;;;0.00;0.00;;;22.70;84.10;;;;;;5090822;28;20229;-62
2023/10/08 08:31:31;;;;;;;1.17;0.40;;;22.90;81.70;;;;;;5090602;28;20184;-63
2023/10/08 08:34:02;;;;;;;0.00;0.00;;;23.00;80.90;;;;;;5090368;28;20717;-63
2023/10/08 08:36:28;;;;;;;0.00;0.00;;;22.60;79.60;;;;;;5076765;28;20588;-64
2023/10/08 08:38:55;;;;;;;0.00;0.00;;;22.30;80.30;;;;;;5094160;28;20577;-64
2023/10/08 08:41:22;;;;;;;0.00;0.00;;;21.90;81.50;;;;;;5093205;28;20187;-63
2023/10/08 08:43:56;;;;;;;0.00;0.00;;;21.80;81.60;;;;;;5094315;28;20228;-64
2023/10/08 08:46:27;;;;;;;0.00;0.00;;;21.80;82.60;;;;;;5094387;28;20184;-63
2023/10/08 08:48:55;;;;;;;0.00;0.00;;;22.00;83.50;;;;;;5093602;28;20251;-63
2023/10/08 08:51:23;;;;;;;0.00;0.00;;;21.80;82.80;;;;;;5093086;28;20200;-65
2023/10/08 08:53:49;;;;;;;0.00;0.00;;;21.60;82.70;;;;;;5094018;28;20259;-64
2023/10/08 08:56:15;;;;;;;0.00;0.00;;;21.50;82.90;;;;;;5093012;28;20689;-64
2023/10/08 08:58:43;;;;;;;0.00;0.00;;;21.40;83.90;;;;;;5094042;28;20188;-63
2023/10/08 09:01:13;;;;;;;0.00;0.00;;;21.30;84.70;;;;;;5094289;28;20180;-64
2023/10/08 09:03:39;;;;;;;0.00;0.00;;;21.30;85.10;;;;;;5093952;28;20207;-64
2023/10/08 09:06:05;;;;;;;0.00;0.00;;;21.30;84.60;;;;;;5094210;28;20172;-63
2023/10/08 09:08:35;;;;;;;0.00;0.00;;;21.20;84.70;;;;;;5094069;28;20172;-64
2023/10/08 09:11:01;;;;;;;0.55;0.30;;;21.10;85.60;;;;;;5094058;28;20518;-63
2023/10/08 09:13:28;;;;;;;0.00;0.00;;;21.00;85.70;;;;;;5094004;28;20324;-64
2023/10/08 09:16:14;;;;;;;0.00;0.00;;;20.90;85.90;;;;;;5094067;28;20172;-64
2023/10/08 09:18:46;;;;;;;0.00;0.00;;;20.80;86.90;;;;;;5093726;28;20180;-64
2023/10/08 09:21:22;;;;;;;0.00;0.00;;;20.70;87.40;;;;;;5093485;28;20196;-64
2023/10/08 09:23:52;;;;;;;0.00;0.00;;;20.80;88.20;;;;;;5093699;28;20220;-63
2023/10/08 09:26:19;;;;;;;0.00;0.00;;;20.80;87.40;;;;;;5093017;28;20631;-63
2023/10/08 09:28:49;;;;;;;0.00;0.00;;;20.80;88.40;;;;;;5083342;28;20565;-64
2023/10/08 09:31:17;;;;;;;0.00;0.00;;;20.80;88.80;;;;;;5098480;28;20171;-64
2023/10/08 09:33:43;;;;;;;0.00;0.00;;;20.80;89.70;;;;;;5093373;28;20177;-64
2023/10/08 09:36:15;;;;;;;0.00;0.00;;;20.70;89.30;;;;;;5093017;28;20193;-63
2023/10/08 09:38:43;;;;;;;0.00;0.00;;;20.60;89.30;;;;;;5101828;28;20215;-64
2023/10/08 09:41:09;;;;;;;0.00;0.00;;;20.50;90.00;;;;;;5093557;28;20541;-64
2023/10/08 09:43:36;;;;;;;0.00;0.00;;;20.50;90.00;;;;;;5092793;28;20219;-64
2023/10/08 09:46:15;;;;;;;0.00;0.00;;;20.60;90.50;;;;;;5093146;28;20709;-64
2023/10/08 09:48:44;;;;;;;0.00;0.00;;;20.70;90.70;;;;;;5092293;28;20229;-64
2023/10/08 09:51:12;;;;;;;0.00;0.00;;;20.80;90.60;;;;;;5093052;28;20187;-64
2023/10/08 09:54:05;;;;;;;0.00;0.00;;;21.00;90.80;;;;;;5091589;28;20180;-64
2023/10/08 09:56:32;;;;;;;0.00;0.00;;;21.10;90.40;;;;;;5092506;28;20814;-63
2023/10/08 09:58:59;;;;;;;0.00;0.00;;;21.20;90.50;;;;;;5092324;28;20184;-62
2023/10/08 10:01:26;;;;;;;0.00;0.00;;;21.20;90.50;;;;;;5092635;28;20183;-63
2023/10/08 10:03:52;;;;;;;0.00;0.00;;;21.30;90.60;;;;;;5092546;28;20216;-63
2023/10/08 10:06:18;;;;;;;0.47;0.47;;;21.30;90.60;;;;;;5092714;28;20183;-63
2023/10/08 10:08:45;;;;;;;0.00;0.00;;;21.40;90.60;;;;;;5092439;28;20188;-62
2023/10/08 10:11:11;;;;;;;0.00;0.00;;;21.50;90.90;;;;;;5092781;28;20208;-63
2023/10/08 10:13:44;;;;;;;0.00;0.00;;;21.70;91.00;;;;;;5092751;28;21004;-63
2023/10/08 10:16:13;;;;;;;0.00;0.00;;;22.00;90.60;;;;;;5092645;28;20672;-63
2023/10/08 10:18:39;;;;;;;0.00;0.00;;;22.20;90.30;;;;;;5092430;28;20269;-63
2023/10/08 10:21:13;;;;;;;0.00;0.00;;;22.30;90.50;;;;;;5092328;28;20581;-63
2023/10/08 10:23:42;;;;;;;0.00;0.00;;;22.40;89.30;;;;;;5092195;28;20246;-63
2023/10/08 10:26:33;;;;;;;0.00;0.00;;;22.30;89.30;;;;;;5092444;28;20172;-62
2023/10/08 10:29:14;;;;;;;0.03;0.03;;;22.30;89.10;;;;;;5092028;28;20176;-62
2023/10/08 10:31:46;;;;;;;0.30;0.30;;;22.20;89.60;;;;;;5087636;28;20585;-62
2023/10/08 10:34:20;;;;;;;0.00;0.00;;;22.10;89.60;;;;;;5091620;28;20172;-63
2023/10/08 10:36:48;;;;;;;0.00;0.00;;;22.00;89.90;;;;;;5092276;28;20761;-63
2023/10/08 10:39:28;;;;;;;0.35;0.35;;;22.00;90.20;;;;;;5091695;28;20278;-64
2023/10/08 10:42:03;;;;;;;0.00;0.00;;;22.00;90.40;;;;;;5080932;28;20639;-63
2023/10/08 10:44:30;;;;;;;0.00;0.00;;;22.30;90.50;;;;;;5090999;28;20302;-62
2023/10/08 10:47:25;;;;;;;0.00;0.00;;;22.50;90.00;;;;;;5091298;28;20559;-62
2023/10/08 10:49:52;;;;;;;0.00;0.00;;;22.50;90.10;;;;;;5091847;28;20184;-63
2023/10/08 10:52:32;;;;;;;0.00;0.00;;;22.70;89.90;;;;;;5091261;28;20180;-63
2023/10/08 10:55:59;;;;;;;0.00;0.00;;;23.00;90.00;;;;;;5091110;28;20639;-64
2023/10/08 10:58:04;;;;;;;0.00;0.00;;;23.20;88.40;;;;;;5087334;28;20189;-64
2023/10/08 11:03:04;;;;;;;0.00;0.00;;;23.50;87.10;;;;;;5091127;28;20212;-63
2023/10/08 11:05:37;;;;;;;0.00;0.00;;;23.80;87.90;;;;;;5091339;28;20203;-63
2023/10/08 11:08:06;;;;;;;0.00;0.00;;;24.10;86.60;;;;;;5091552;28;20211;-64
2023/10/08 11:10:32;;;;;;;0.00;0.00;;;24.40;85.40;;;;;;5091476;28;20299;-64
2023/10/08 11:13:01;;;;;;;0.00;0.00;;;24.50;84.80;;;;;;5090199;28;20237;-63
2023/10/08 11:15:37;;;;;;;0.32;0.22;;;24.70;84.70;;;;;;5090896;28;20191;-62
2023/10/08 11:18:10;;;;;;;0.00;0.00;;;24.70;82.20;;;;;;5078208;28;20187;-63
2023/10/08 11:20:39;;;;;;;0.00;0.00;;;24.80;83.10;;;;;;5090004;28;20647;-64
2023/10/08 11:23:21;;;;;;;0.00;0.00;;;25.00;81.50;;;;;;5090952;28;20211;-63
2023/10/08 11:26:02;;;;;;;0.00;0.00;;;25.00;81.30;;;;;;5091157;28;20184;-63
2023/10/08 11:28:47;;;;;;;0.00;0.00;;;24.90;81.00;;;;;;5088152;28;20279;-63
2023/10/08 11:31:14;;;;;;;0.00;0.00;;;24.80;82.40;;;;;;5090818;28;20184;-63
2023/10/08 11:34:36;;;;;;;0.00;0.00;;;24.80;81.50;;;;;;5090471;28;20719;-63
2023/10/08 11:36:33;;;;;;;0.10;0.10;;;24.70;81.30;;;;;;5077293;28;20196;-62
2023/10/08 11:39:11;;;;;;;0.00;0.00;;;24.60;81.30;;;;;;5090865;28;20800;-63
2023/10/08 11:41:51;;;;;;;0.00;0.00;;;24.40;80.60;;;;;;5088560;28;20511;-61
2023/10/08 11:44:23;;;;;;;0.00;0.00;;;24.30;81.30;;;;;;5090521;28;20756;-62
2023/10/08 11:46:51;;;;;;;0.00;0.00;;;24.20;81.60;;;;;;5086217;28;20331;-62
2023/10/08 11:49:17;;;;;;;0.00;0.00;;;24.20;82.60;;;;;;5105040;28;20179;-61
2023/10/08 11:51:45;;;;;;;0.00;0.00;;;24.30;83.30;;;;;;5094735;28;20805;-62
2023/10/08 11:54:11;;;;;;;0.00;0.00;;;24.40;83.00;;;;;;5091139;28;20635;-61
2023/10/08 11:56:38;;;;;;;0.10;0.10;;;24.50;82.30;;;;;;5091231;28;20235;-62
2023/10/08 11:59:11;;;;;;;0.00;0.00;;;24.80;82.50;;;;;;5090618;28;20236;-62
2023/10/08 12:01:41;;;;;;;0.00;0.00;;;25.00;80.10;;;;;;5090262;28;20183;-60
2023/10/08 12:04:12;;;;;;;0.00;0.00;;;24.90;81.30;;;;;;5090857;28;20626;-61
2023/10/08 12:06:39;;;;;;;0.00;0.00;;;24.90;80.50;;;;;;5090322;28;20707;-60
2023/10/08 12:09:11;;;;;;;0.00;0.00;;;24.90;79.80;;;;;;5090881;28;20661;-61
2023/10/08 12:11:37;;;;;;;0.00;0.00;;;24.90;80.00;;;;;;5093977;28;20525;-61
2023/10/08 12:14:03;;;;;;;0.13;0.13;;;25.00;80.20;;;;;;5093206;28;20191;-61
2023/10/08 12:16:35;;;;;;;0.52;0.52;;;25.00;80.10;;;;;;5094793;28;20560;-62
2023/10/08 12:19:01;;;;;;;0.00;0.00;;;25.00;79.70;;;;;;5110687;28;20274;-61
2023/10/08 12:21:30;;;;;;;0.00;0.00;;;25.00;79.80;;;;;;5096348;28;20180;-61
2023/10/08 12:23:57;;;;;;;0.00;0.00;;;25.20;79.70;;;;;;5094937;28;20212;-63
2023/10/08 12:26:23;;;;;;;0.00;0.00;;;25.40;78.60;;;;;;5095193;28;20314;-62
2023/10/08 12:28:49;;;;;;;0.00;0.00;;;25.40;78.20;;;;;;5094502;28;20654;-62
2023/10/08 12:31:22;;;;;;;0.00;0.00;;;25.50;77.00;;;;;;5095043;28;20255;-61
2023/10/08 12:33:49;;;;;;;0.00;0.00;;;25.60;76.80;;;;;;5094445;28;20179;-62
2023/10/08 12:36:16;;;;;;;0.00;0.00;;;25.70;76.40;;;;;;5094335;28;20172;-62
2023/10/08 12:38:43;;;;;;;0.00;0.00;;;25.70;75.20;;;;;;5094213;28;20235;-62
2023/10/08 12:41:11;;;;;;;0.00;0.00;;;25.70;73.90;;;;;;5094626;28;20187;-62
2023/10/08 12:43:38;;;;;;;0.00;0.00;;;25.50;74.60;;;;;;5093978;28;20237;-62
2023/10/08 12:46:10;;;;;;;0.00;0.00;;;25.40;75.80;;;;;;5095044;28;20194;-61
2023/10/08 12:48:36;;;;;;;0.00;0.00;;;25.40;76.80;;;;;;5094692;28;20180;-62
2023/10/08 12:51:05;;;;;;;0.00;0.00;;;25.30;74.90;;;;;;5094891;28;20176;-61
2023/10/08 12:53:34;;;;;;;0.00;0.00;;;25.30;74.90;;;;;;5093538;28;20180;-61
2023/10/08 12:56:14;;;;;;;0.10;0.10;;;25.30;76.10;;;;;;5094309;28;20183;-61
2023/10/08 12:58:43;;;;;;;0.10;0.10;;;25.20;75.00;;;;;;5093639;28;20662;-62
2023/10/08 13:01:13;;;;;;;0.00;0.00;;;25.30;76.50;;;;;;5093248;28;20180;-61
2023/10/08 13:03:42;;;;;;;0.00;0.00;;;25.30;76.10;;;;;;5094299;28;20220;-61
2023/10/08 13:06:14;;;;;;;0.00;0.00;;;25.30;77.20;;;;;;5094601;28;20553;-61
2023/10/08 13:08:40;;;;;;;0.20;0.20;;;25.30;76.50;;;;;;5094173;28;20222;-61
2023/10/08 13:11:06;;;;;;;0.00;0.00;;;25.30;76.50;;;;;;5092778;28;20188;-62
2023/10/08 13:13:33;;;;;;;0.00;0.00;;;25.30;75.40;;;;;;5093594;28;20198;-62
2023/10/08 13:16:02;;;;;;;0.00;0.00;;;25.40;75.70;;;;;;5094236;28;20180;-62
2023/10/08 13:18:29;;;;;;;0.00;0.00;;;25.40;76.80;;;;;;5094233;28;20226;-61
2023/10/08 13:20:55;;;;;;;0.00;0.00;;;25.40;76.00;;;;;;5093836;28;20262;-61
2023/10/08 13:23:23;;;;;;;0.00;0.00;;;25.40;77.10;;;;;;5093059;28;20611;-61
2023/10/08 13:25:55;;;;;;;0.00;0.00;;;25.30;76.10;;;;;;5094040;28;20179;-61
2023/10/08 13:28:22;;;;;;;0.00;0.00;;;25.30;76.10;;;;;;5093923;28;20636;-61
2023/10/08 13:30:54;;;;;;;0.00;0.00;;;25.10;76.50;;;;;;5093942;28;20176;-60
2023/10/08 13:33:22;;;;;;;0.03;0.03;;;25.00;76.80;;;;;;5082653;28;20207;-61
2023/10/08 13:35:49;;;;;;;0.00;0.00;;;25.00;78.30;;;;;;5099037;28;20176;-61
2023/10/08 13:38:16;;;;;;;0.00;0.00;;;25.10;79.40;;;;;;5094975;28;20608;-61
2023/10/08 13:41:01;;;;;;;0.00;0.00;;;25.20;78.50;;;;;;5098341;28;20245;-60
2023/10/08 13:43:34;;;;;;;0.00;0.00;;;25.30;78.40;;;;;;5093346;28;20227;-61
2023/10/08 13:46:07;;;;;;;0.43;0.17;;;25.30;78.10;;;;;;5092056;28;20206;-61
2023/10/08 13:48:34;;;;;;;0.00;0.00;;;25.30;77.20;;;;;;5093059;28;20180;-62
2023/10/08 13:51:04;;;;;;;0.00;0.00;;;25.30;76.70;;;;;;5092469;28;20180;-60